Time;durP1;ratioP1;P1;durP2;ratioP2;P2;SDS_P1;SDS_P2;PMS_P1;PMS_P2;Temp;Humidity;BMP_temperature;BMP_pressure;BME280_temperature;BME280_humidity;BME280_pressure;Samples;Min_cycle;Max_cycle;Signal;HPM_P1;HPM_P2
2022/04/25 00:01:58;;;;;;;;;;;12.50;86.00;;;;;;5016365;28;19916;-73
2022/04/25 00:04:24;;;;;;;;;;;12.50;86.60;;;;;;5016159;28;20250;-71
2022/04/25 00:06:50;;;;;;;;;;;12.50;86.80;;;;;;5015694;28;19910;-72
2022/04/25 00:09:15;;;;;;;;;;;12.50;86.80;;;;;;5015989;28;19909;-71
2022/04/25 00:11:41;;;;;;;;;;;12.60;86.50;;;;;;5015617;28;20301;-72
2022/04/25 00:14:07;;;;;;;;;;;12.60;86.80;;;;;;5015821;28;19933;-72
2022/04/25 00:16:33;;;;;;;;;;;12.50;86.90;;;;;;5015524;28;19968;-72
2022/04/25 00:19:00;;;;;;;;;;;12.60;87.00;;;;;;5015604;28;19910;-72
2022/04/25 00:21:25;;;;;;;;;;;12.60;86.70;;;;;;5015474;28;19926;-72
2022/04/25 00:23:51;;;;;;;;;;;12.60;86.70;;;;;;5015346;28;19914;-73
2022/04/25 00:26:17;;;;;;;;;;;12.60;86.80;;;;;;5015315;28;20254;-73
2022/04/25 00:28:43;;;;;;;;;;;12.60;86.10;;;;;;5015343;28;19914;-72
2022/04/25 00:31:08;;;;;;;;;;;12.60;86.10;;;;;;5015495;28;20311;-72
2022/04/25 00:33:34;;;;;;;;;;;12.60;86.90;;;;;;5015119;28;19941;-73
2022/04/25 00:36:00;;;;;;;;;;;12.60;86.30;;;;;;5015337;28;19925;-71
2022/04/25 00:38:25;;;;;;;;;;;12.60;85.90;;;;;;5015500;28;20382;-73
2022/04/25 00:40:51;;;;;;;;;;;12.60;86.50;;;;;;5013893;28;19910;-71
2022/04/25 00:43:16;;;;;;;;;;;12.70;86.10;;;;;;5014568;28;20255;-72
2022/04/25 00:45:42;;;;;;;;;;;12.70;86.60;;;;;;5015438;28;20259;-71
2022/04/25 00:48:07;;;;;;;;;;;12.70;86.90;;;;;;5015291;28;20422;-71
2022/04/25 00:50:33;;;;;;;;;;;12.60;86.80;;;;;;5015174;28;19972;-72
2022/04/25 00:52:59;;;;;;;;;;;12.70;86.70;;;;;;5014826;28;19984;-71
2022/04/25 00:55:24;;;;;;;;;;;12.60;86.30;;;;;;5014926;28;20374;-72
2022/04/25 00:57:56;;;;;;;;;;;12.70;86.90;;;;;;5014753;28;20369;-72
2022/04/25 01:00:21;;;;;;;;;;;12.70;87.30;;;;;;5014980;28;20389;-72
2022/04/25 01:02:47;;;;;;;;;;;12.60;87.10;;;;;;5015293;28;19910;-73
2022/04/25 01:05:12;;;;;;;;;;;12.60;86.90;;;;;;5016407;28;19936;-71
2022/04/25 01:07:38;;;;;;;;;;;12.60;86.30;;;;;;5016474;28;19952;-72
2022/04/25 01:10:04;;;;;;;;;;;12.70;86.00;;;;;;5016614;28;19909;-72
2022/04/25 01:12:30;;;;;;;;;;;12.70;86.40;;;;;;5016793;28;19996;-72
2022/04/25 01:14:56;;;;;;;;;;;12.70;86.70;;;;;;5017428;28;19952;-71
2022/04/25 01:17:22;;;;;;;;;;;12.70;86.60;;;;;;5015790;28;19914;-72
2022/04/25 01:19:48;;;;;;;;;;;12.60;87.30;;;;;;5014700;28;19955;-71
2022/04/25 01:22:15;;;;;;;;;;;12.70;86.80;;;;;;5014296;28;20345;-72
2022/04/25 01:27:26;;;;;;;;;;;12.70;86.10;;;;;;5014167;28;19929;-71
2022/04/25 01:29:52;;;;;;;;;;;12.70;85.30;;;;;;5014272;28;19914;-72
2022/04/25 01:32:19;;;;;;;;;;;12.70;84.90;;;;;;5014196;28;19913;-72
2022/04/25 01:34:44;;;;;;;;;;;12.70;84.80;;;;;;5014250;28;19916;-72
2022/04/25 01:37:11;;;;;;;;;;;12.70;85.30;;;;;;5014293;28;19909;-72
2022/04/25 01:39:38;;;;;;;;;;;12.70;85.30;;;;;;5014043;28;20393;-73
2022/04/25 01:42:05;;;;;;;;;;;12.60;84.80;;;;;;5014273;28;19920;-72
2022/04/25 01:44:30;;;;;;;;;;;12.60;85.40;;;;;;5014239;28;19910;-73
2022/04/25 01:46:56;;;;;;;;;;;12.50;85.70;;;;;;5014219;28;19910;-72
2022/04/25 01:49:22;;;;;;;;;;;12.50;85.70;;;;;;5014295;28;20360;-73
2022/04/25 01:51:47;;;;;;;;;;;12.40;85.60;;;;;;5013705;28;19910;-72
2022/04/25 01:54:13;;;;;;;;;;;12.40;85.40;;;;;;5013129;28;19909;-73
2022/04/25 01:56:39;;;;;;;;;;;12.40;86.00;;;;;;5014126;28;19918;-72
2022/04/25 01:59:04;;;;;;;;;;;12.40;86.00;;;;;;5014331;28;19916;-72
2022/04/25 02:01:30;;;;;;;;;;;12.40;85.80;;;;;;5014009;28;19948;-71
2022/04/25 02:03:55;;;;;;;;;;;12.50;84.60;;;;;;5014075;28;20381;-73
2022/04/25 02:06:21;;;;;;;;;;;12.50;84.50;;;;;;5014137;28;19940;-73
2022/04/25 02:08:47;;;;;;;;;;;12.50;84.20;;;;;;5014051;28;19917;-72
2022/04/25 02:11:22;;;;;;;;;;;12.50;84.30;;;;;;5013950;28;19917;-72
2022/04/25 02:13:51;;;;;;;;;;;12.50;83.80;;;;;;5013919;28;19964;-73
2022/04/25 02:16:20;;;;;;;;;;;12.50;84.80;;;;;;5013654;28;20255;-72
2022/04/25 02:18:46;;;;;;;;;;;12.50;84.70;;;;;;5013859;28;19913;-72
2022/04/25 02:21:12;;;;;;;;;;;12.50;84.90;;;;;;5013715;28;20064;-71
2022/04/25 02:23:38;;;;;;;;;;;12.50;84.40;;;;;;5013620;28;20361;-72
2022/04/25 02:26:05;;;;;;;;;;;12.60;84.60;;;;;;5012580;28;19917;-71
2022/04/25 02:28:31;;;;;;;;;;;12.60;84.30;;;;;;5013764;28;19910;-71
2022/04/25 02:30:58;;;;;;;;;;;12.60;85.00;;;;;;5013784;28;19909;-73
2022/04/25 02:33:24;;;;;;;;;;;12.60;85.50;;;;;;5013727;28;20233;-73
2022/04/25 02:35:50;;;;;;;;;;;12.50;86.10;;;;;;5013429;28;19928;-73
2022/04/25 02:38:15;;;;;;;;;;;12.40;86.90;;;;;;5013835;28;19909;-72
2022/04/25 02:40:41;;;;;;;;;;;12.40;87.00;;;;;;5013444;28;20318;-72
2022/04/25 02:43:06;;;;;;;;;;;12.40;87.20;;;;;;5013579;28;19936;-72
2022/04/25 02:45:32;;;;;;;;;;;12.40;87.30;;;;;;5013454;28;19913;-72
2022/04/25 02:47:58;;;;;;;;;;;12.40;87.50;;;;;;5013638;28;19932;-72
2022/04/25 02:50:24;;;;;;;;;;;12.40;87.10;;;;;;5011926;28;19909;-72
2022/04/25 02:52:53;;;;;;;;;;;12.40;86.80;;;;;;5013544;28;19956;-72
2022/04/25 02:55:22;;;;;;;;;;;12.50;86.70;;;;;;5013334;28;20282;-72
2022/04/25 02:57:47;;;;;;;;;;;12.40;87.20;;;;;;5013196;28;19910;-72
2022/04/25 03:00:13;;;;;;;;;;;12.40;87.10;;;;;;5013366;28;20276;-71
2022/04/25 03:02:39;;;;;;;;;;;12.40;87.20;;;;;;5013016;28;19916;-71
2022/04/25 03:05:05;;;;;;;;;;;12.40;87.70;;;;;;5014684;28;19909;-72
2022/04/25 03:07:30;;;;;;;;;;;12.40;87.90;;;;;;5016947;28;20350;-72
2022/04/25 03:09:56;;;;;;;;;;;12.40;87.80;;;;;;5016857;28;19909;-72
2022/04/25 03:12:22;;;;;;;;;;;12.50;87.70;;;;;;5016859;28;20011;-72
2022/04/25 03:14:48;;;;;;;;;;;12.40;87.90;;;;;;5016665;28;19910;-71
2022/04/25 03:17:13;;;;;;;;;;;12.40;87.70;;;;;;5016507;28;19945;-72
2022/04/25 03:19:39;;;;;;;;;;;12.40;87.30;;;;;;5016492;28;19928;-72
2022/04/25 03:22:05;;;;;;;;;;;12.40;87.60;;;;;;5016219;28;20008;-72
2022/04/25 03:24:30;;;;;;;;;;;12.40;86.80;;;;;;5016601;28;19909;-72
2022/04/25 03:26:56;;;;;;;;;;;12.50;86.70;;;;;;5016714;28;19910;-72
2022/04/25 03:29:22;;;;;;;;;;;12.40;87.20;;;;;;5016476;28;19940;-71
2022/04/25 03:31:48;;;;;;;;;;;12.40;86.90;;;;;;5016411;28;19909;-72
2022/04/25 03:34:13;;;;;;;;;;;12.40;86.70;;;;;;5015003;28;19917;-71
2022/04/25 03:36:39;;;;;;;;;;;12.40;86.90;;;;;;5016600;28;20349;-72
2022/04/25 03:39:05;;;;;;;;;;;12.40;86.00;;;;;;5016357;28;19916;-72
2022/04/25 03:41:31;;;;;;;;;;;12.40;86.20;;;;;;5016251;28;19910;-72
2022/04/25 03:43:57;;;;;;;;;;;12.30;86.50;;;;;;5016235;28;20312;-71
2022/04/25 03:46:23;;;;;;;;;;;12.20;86.80;;;;;;5016424;28;19973;-72
2022/04/25 03:48:48;;;;;;;;;;;12.20;86.80;;;;;;5016174;28;20384;-73
2022/04/25 03:51:14;;;;;;;;;;;12.20;86.90;;;;;;5016067;28;19909;-72
2022/04/25 03:53:40;;;;;;;;;;;12.20;86.80;;;;;;5015961;28;19932;-72
2022/04/25 03:58:50;;;;;;;;;;;12.10;87.10;;;;;;5016295;28;19920;-72
2022/04/25 04:01:16;;;;;;;;;;;12.10;86.40;;;;;;5015644;28;19996;-73
2022/04/25 04:03:41;;;;;;;;;;;12.20;85.90;;;;;;5016118;28;20246;-72
2022/04/25 04:06:12;;;;;;;;;;;12.30;85.20;;;;;;5016308;28;19910;-71
2022/04/25 04:08:38;;;;;;;;;;;12.30;84.70;;;;;;5015993;28;19916;-72
2022/04/25 04:11:04;;;;;;;;;;;12.30;84.00;;;;;;5015838;28;19910;-72
2022/04/25 04:13:29;;;;;;;;;;;12.30;84.60;;;;;;5015619;28;19910;-72
2022/04/25 04:15:56;;;;;;;;;;;12.30;84.60;;;;;;5015033;28;19979;-72
2022/04/25 04:18:23;;;;;;;;;;;12.20;85.30;;;;;;5014227;28;20012;-71
2022/04/25 04:20:49;;;;;;;;;;;12.30;84.20;;;;;;5015661;28;20324;-72
2022/04/25 04:23:14;;;;;;;;;;;12.30;84.30;;;;;;5015405;28;19926;-72
2022/04/25 04:25:40;;;;;;;;;;;12.30;85.60;;;;;;5015634;28;19932;-71
2022/04/25 04:28:06;;;;;;;;;;;12.30;86.30;;;;;;5015451;28;19972;-72
2022/04/25 04:30:32;;;;;;;;;;;12.20;86.60;;;;;;5015501;28;20594;-71
2022/04/25 04:32:58;;;;;;;;;;;12.20;86.80;;;;;;5015321;28;19931;-72
2022/04/25 04:38:08;;;;;;;;;;;12.20;86.50;;;;;;5015812;28;19917;-72
2022/04/25 04:40:34;;;;;;;;;;;12.20;86.30;;;;;;5015206;28;19910;-71
2022/04/25 04:43:00;;;;;;;;;;;12.20;86.90;;;;;;5014978;28;20309;-71
2022/04/25 04:45:26;;;;;;;;;;;12.20;87.20;;;;;;5015272;28;19909;-71
2022/04/25 04:47:52;;;;;;;;;;;12.30;87.50;;;;;;5015297;28;19909;-72
2022/04/25 04:50:17;;;;;;;;;;;12.30;87.40;;;;;;5015204;28;19917;-72
2022/04/25 04:52:51;;;;;;;;;;;12.30;87.50;;;;;;5014887;28;20011;-72
2022/04/25 04:55:17;;;;;;;;;;;12.30;87.70;;;;;;5014584;28;19918;-73
2022/04/25 04:57:43;;;;;;;;;;;12.30;87.20;;;;;;5014911;28;20341;-72
2022/04/25 05:00:10;;;;;;;;;;;12.30;86.90;;;;;;5014880;28;19909;-72
2022/04/25 05:02:36;;;;;;;;;;;12.30;87.40;;;;;;5014686;28;19910;-72
2022/04/25 05:05:01;;;;;;;;;;;12.40;87.60;;;;;;5014423;28;19909;-72
2022/04/25 05:07:27;;;;;;;;;;;12.40;87.30;;;;;;5014550;28;19956;-72
2022/04/25 05:09:52;;;;;;;;;;;12.40;87.70;;;;;;5014758;28;19936;-69
2022/04/25 05:12:18;;;;;;;;;;;12.40;87.20;;;;;;5014787;28;20342;-71
2022/04/25 05:14:44;;;;;;;;;;;12.40;87.60;;;;;;5013230;28;19928;-72
2022/04/25 05:17:09;;;;;;;;;;;12.40;86.80;;;;;;5014542;28;20019;-72
2022/04/25 05:19:35;;;;;;;;;;;12.50;86.80;;;;;;5014689;28;19910;-72
2022/04/25 05:22:01;;;;;;;;;;;12.60;87.60;;;;;;5012905;28;19922;-72
2022/04/25 05:24:26;;;;;;;;;;;12.60;86.40;;;;;;5014381;28;20246;-71
2022/04/25 05:26:52;;;;;;;;;;;12.70;86.60;;;;;;5014487;28;19914;-72
2022/04/25 05:29:17;;;;;;;;;;;12.70;86.60;;;;;;5014193;28;20282;-71
2022/04/25 05:31:43;;;;;;;;;;;12.70;86.70;;;;;;5014262;28;20333;-71
2022/04/25 05:34:09;;;;;;;;;;;12.80;87.10;;;;;;5014468;28;19916;-72
2022/04/25 05:36:35;;;;;;;;;;;12.90;86.40;;;;;;5014441;28;20317;-72
2022/04/25 05:39:00;;;;;;;;;;;12.90;84.00;;;;;;5014392;28;19909;-71
2022/04/25 05:41:26;;;;;;;;;;;12.90;84.40;;;;;;5013956;28;19913;-73
2022/04/25 05:43:52;;;;;;;;;;;13.00;82.70;;;;;;5014411;28;19909;-71
2022/04/25 05:46:19;;;;;;;;;;;13.10;83.20;;;;;;5014223;28;20063;-73
2022/04/25 05:54:13;;;;;;;;;;;13.10;82.70;;;;;;5013892;28;19936;-72
2022/04/25 05:56:39;;;;;;;;;;;13.20;83.60;;;;;;5013911;28;19918;-73
2022/04/25 05:59:05;;;;;;;;;;;13.20;82.60;;;;;;5012732;28;19909;-73
2022/04/25 06:01:30;;;;;;;;;;;13.20;81.90;;;;;;5013971;28;19917;-73
2022/04/25 06:03:56;;;;;;;;;;;13.30;82.40;;;;;;5013872;28;19940;-71
2022/04/25 06:06:23;;;;;;;;;;;13.40;83.40;;;;;;5014664;28;20364;-67
2022/04/25 06:08:49;;;;;;;;;;;13.50;83.40;;;;;;5013646;28;20350;-60
2022/04/25 06:11:15;;;;;;;;;;;13.80;82.70;;;;;;5013951;28;20273;-62
2022/04/25 06:13:44;;;;;;;;;;;13.90;81.60;;;;;;5013962;28;19910;-65
2022/04/25 06:16:10;;;;;;;;;;;14.10;81.10;;;;;;5013958;28;19924;-66
2022/04/25 06:18:36;;;;;;;;;;;14.30;79.30;;;;;;5013684;28;19909;-64
2022/04/25 06:21:02;;;;;;;;;;;14.20;76.30;;;;;;5013728;28;20348;-68
2022/04/25 06:23:27;;;;;;;;;;;14.20;76.10;;;;;;5012085;28;19922;-69
2022/04/25 06:25:53;;;;;;;;;;;14.40;75.80;;;;;;5013226;28;19910;-62
2022/04/25 06:28:18;;;;;;;;;;;14.30;75.40;;;;;;5013047;28;20345;-66
2022/04/25 06:30:44;;;;;;;;;;;14.40;75.60;;;;;;5013454;28;19913;-66
2022/04/25 06:33:10;;;;;;;;;;;14.40;74.80;;;;;;5013246;28;20021;-65
2022/04/25 06:35:36;;;;;;;;;;;14.40;73.90;;;;;;5013328;28;20266;-66
2022/04/25 06:38:01;;;;;;;;;;;14.20;74.00;;;;;;5013704;28;19909;-64
2022/04/25 06:40:27;;;;;;;;;;;14.30;74.80;;;;;;5015539;28;20366;-69
2022/04/25 06:42:54;;;;;;;;;;;14.30;76.50;;;;;;5017188;28;19952;-66
2022/04/25 06:45:20;;;;;;;;;;;14.40;76.10;;;;;;5016004;28;19953;-65
2022/04/25 06:47:45;;;;;;;;;;;14.30;73.50;;;;;;5017179;28;20344;-76
2022/04/25 06:50:11;;;;;;;;;;;14.40;74.20;;;;;;5017282;28;19909;-73
2022/04/25 06:52:37;;;;;;;;;;;14.30;73.00;;;;;;5016955;28;19909;-73
2022/04/25 06:55:04;;;;;;;;;;;14.30;73.60;;;;;;5017259;28;19913;-73
2022/04/25 06:57:32;;;;;;;;;;;14.30;74.80;;;;;;5017144;28;19909;-71
2022/04/25 06:59:59;;;;;;;;;;;14.40;73.80;;;;;;5017168;28;19980;-73
2022/04/25 07:02:25;;;;;;;;;;;14.40;74.50;;;;;;5016878;28;19910;-73
2022/04/25 07:04:50;;;;;;;;;;;14.40;74.40;;;;;;5016813;28;20263;-69
2022/04/25 07:07:17;;;;;;;;;;;14.40;72.80;;;;;;5016734;28;19909;-76
2022/04/25 07:09:43;;;;;;;;;;;14.40;73.30;;;;;;5017432;28;20004;-75
2022/04/25 07:12:09;;;;;;;;;;;14.40;75.40;;;;;;5016485;28;19916;-76
2022/04/25 07:14:34;;;;;;;;;;;14.40;73.40;;;;;;5017068;28;19909;-77
2022/04/25 07:17:02;;;;;;;;;;;14.50;72.10;;;;;;5016603;28;19917;-77
2022/04/25 07:19:28;;;;;;;;;;;14.60;73.20;;;;;;5016482;28;19913;-75
2022/04/25 07:30:06;;;;;;;;;;;14.80;70.80;;;;;;5016460;28;19967;-74
2022/04/25 07:32:40;;;;;;;;;;;14.90;72.50;;;;;;5015009;28;19960;-75
2022/04/25 07:35:06;;;;;;;;;;;15.20;69.90;;;;;;5014741;28;19916;-73
2022/04/25 07:37:33;;;;;;;;;;;15.20;68.90;;;;;;5016309;28;19914;-73
2022/04/25 07:39:59;;;;;;;;;;;15.20;69.00;;;;;;5016470;28;19910;-74
2022/04/25 07:42:25;;;;;;;;;;;15.30;68.60;;;;;;5016100;28;19914;-73
2022/04/25 07:44:50;;;;;;;;;;;15.40;68.70;;;;;;5016499;28;19933;-73
2022/04/25 07:47:16;;;;;;;;;;;15.30;68.50;;;;;;5016253;28;20383;-69
2022/04/25 07:49:41;;;;;;;;;;;15.40;68.80;;;;;;5016108;28;20056;-77
2022/04/25 07:52:07;;;;;;;;;;;15.40;68.10;;;;;;5014642;28;20354;-73
2022/04/25 07:54:33;;;;;;;;;;;15.60;66.70;;;;;;5014493;28;20028;-75
2022/04/25 07:56:59;;;;;;;;;;;15.70;67.00;;;;;;5015722;28;20467;-75
2022/04/25 07:59:26;;;;;;;;;;;15.80;67.10;;;;;;5014904;28;20415;-75
2022/04/25 08:01:52;;;;;;;;;;;15.90;65.40;;;;;;5016213;28;20354;-77
2022/04/25 08:04:18;;;;;;;;;;;16.10;64.80;;;;;;5016549;28;19909;-77
2022/04/25 08:06:43;;;;;;;;;;;16.30;63.50;;;;;;5015713;28;20004;-73
2022/04/25 08:09:09;;;;;;;;;;;16.10;64.50;;;;;;5016046;28;19976;-72
2022/04/25 08:11:34;;;;;;;;;;;16.20;64.30;;;;;;5015782;28;20020;-75
2022/04/25 08:17:58;;;;;;;;;;;16.40;64.40;;;;;;5015523;28;19988;-75
2022/04/25 08:19:36;;;;;;;;;;;16.40;66.20;;;;;;5015803;28;20354;-74
2022/04/25 08:22:01;;;;;;;;;;;16.30;64.40;;;;;;5015402;28;19921;-73
2022/04/25 08:24:27;;;;;;;;;;;16.30;64.80;;;;;;5015451;28;19909;-73
2022/04/25 08:26:56;;;;;;;;;;;16.30;64.10;;;;;;5015759;28;20004;-73
2022/04/25 08:29:22;;;;;;;;;;;16.50;64.10;;;;;;5015486;28;19913;-74
2022/04/25 08:31:48;;;;;;;;;;;16.60;63.90;;;;;;5014953;28;20270;-73
2022/04/25 08:34:15;;;;;;;;;;;16.80;63.40;;;;;;5015110;28;19917;-73
2022/04/25 08:36:40;;;;;;;;;;;16.80;65.10;;;;;;5015279;28;19965;-73
2022/04/25 08:39:06;;;;;;;;;;;16.60;64.60;;;;;;5015497;28;20395;-72
2022/04/25 08:41:39;;;;;;;;;;;16.60;65.20;;;;;;5015045;28;20357;-73
2022/04/25 08:44:05;;;;;;;;;;;16.70;65.90;;;;;;5015726;28;20334;-73
2022/04/25 08:46:32;;;;;;;;;;;16.70;65.70;;;;;;5015038;28;19955;-71
2022/04/25 08:49:00;;;;;;;;;;;16.80;66.20;;;;;;5015267;28;20333;-73
2022/04/25 08:51:26;;;;;;;;;;;16.90;65.70;;;;;;5014612;28;19910;-72
2022/04/25 08:53:53;;;;;;;;;;;16.80;64.20;;;;;;5015100;28;19941;-73
2022/04/25 08:56:22;;;;;;;;;;;16.90;65.80;;;;;;5014942;28;19917;-72
2022/04/25 08:58:49;;;;;;;;;;;17.10;64.40;;;;;;5014937;28;19916;-73
2022/04/25 09:01:15;;;;;;;;;;;17.10;63.70;;;;;;5014622;28;20059;-73
2022/04/25 09:03:40;;;;;;;;;;;16.70;64.20;;;;;;5014556;28;19916;-73
2022/04/25 09:06:06;;;;;;;;;;;16.70;65.20;;;;;;5014741;28;19909;-72
2022/04/25 09:08:32;;;;;;;;;;;16.60;65.20;;;;;;5014662;28;19910;-73
2022/04/25 09:13:43;;;;;;;;;;;16.90;65.00;;;;;;5015425;28;20296;-73
2022/04/25 09:16:11;;;;;;;;;;;16.90;63.90;;;;;;5012924;28;20056;-72
2022/04/25 09:18:37;;;;;;;;;;;17.00;67.20;;;;;;5013757;28;20004;-72
2022/04/25 09:21:04;;;;;;;;;;;17.10;65.40;;;;;;5014670;28;19956;-75
2022/04/25 09:23:29;;;;;;;;;;;17.10;63.00;;;;;;5014403;28;19976;-73
2022/04/25 09:26:11;;;;;;;;;;;17.10;62.90;;;;;;5014361;28;19936;-72
2022/04/25 09:28:50;;;;;;;;;;;17.20;64.10;;;;;;5014144;28;19916;-69
2022/04/25 09:31:17;;;;;;;;;;;17.50;65.00;;;;;;5014696;28;19916;-74
2022/04/25 09:33:43;;;;;;;;;;;17.60;63.40;;;;;;5014213;28;20381;-71
2022/04/25 09:36:08;;;;;;;;;;;17.60;62.80;;;;;;5014205;28;20481;-76
2022/04/25 09:38:35;;;;;;;;;;;17.70;62.70;;;;;;5014621;28;20000;-72
2022/04/25 09:41:01;;;;;;;;;;;17.20;63.50;;;;;;5014168;28;19952;-77
2022/04/25 09:43:29;;;;;;;;;;;17.00;63.60;;;;;;5014159;28;19913;-73
2022/04/25 09:46:08;;;;;;;;;;;17.20;64.20;;;;;;5013962;28;19917;-72
2022/04/25 09:48:34;;;;;;;;;;;17.30;64.50;;;;;;5013374;28;19916;-76
2022/04/25 09:51:01;;;;;;;;;;;17.30;63.00;;;;;;5014047;28;20004;-74
2022/04/25 09:53:43;;;;;;;;;;;17.20;62.60;;;;;;5013991;28;19916;-75
2022/04/25 09:56:09;;;;;;;;;;;17.30;64.10;;;;;;5013719;28;19941;-72
2022/04/25 09:58:37;;;;;;;;;;;17.00;62.70;;;;;;5013776;28;19956;-72
2022/04/25 10:01:08;;;;;;;;;;;16.90;64.20;;;;;;5013872;28;19913;-74
2022/04/25 10:03:37;;;;;;;;;;;17.00;65.40;;;;;;5013582;28;19910;-74
2022/04/25 10:06:04;;;;;;;;;;;17.20;65.90;;;;;;5013710;28;19913;-74
2022/04/25 10:08:31;;;;;;;;;;;17.50;64.90;;;;;;5014203;28;19909;-73
2022/04/25 10:10:57;;;;;;;;;;;17.70;63.70;;;;;;5014103;28;20004;-74
2022/04/25 10:13:24;;;;;;;;;;;17.50;62.70;;;;;;5014160;28;19960;-75
2022/04/25 10:15:50;;;;;;;;;;;17.60;63.40;;;;;;5012913;28;19924;-73
2022/04/25 10:18:15;;;;;;;;;;;17.50;62.00;;;;;;5013568;28;19909;-73
2022/04/25 10:20:41;;;;;;;;;;;17.30;62.60;;;;;;5013158;28;20030;-72
2022/04/25 10:23:09;;;;;;;;;;;17.10;63.40;;;;;;5013089;28;19925;-73
2022/04/25 10:25:36;;;;;;;;;;;17.00;63.60;;;;;;5013455;28;20369;-75
2022/04/25 10:28:05;;;;;;;;;;;17.00;64.00;;;;;;5013532;28;20284;-74
2022/04/25 10:30:33;;;;;;;;;;;16.60;64.30;;;;;;5013929;28;19968;-73
2022/04/25 10:33:18;;;;;;;;;;;16.50;65.70;;;;;;5013436;28;19909;-74
2022/04/25 10:35:44;;;;;;;;;;;16.90;67.30;;;;;;5013698;28;20445;-73
2022/04/25 10:38:49;;;;;;;;;;;17.40;63.90;;;;;;5014038;28;19955;-73
2022/04/25 10:44:24;;;;;;;;;;;17.10;62.20;;;;;;5013494;28;19917;-73
2022/04/25 10:47:05;;;;;;;;;;;17.10;61.30;;;;;;5014395;28;19989;-76
2022/04/25 10:49:35;;;;;;;;;;;17.00;63.90;;;;;;5014228;28;19910;-74
2022/04/25 10:52:01;;;;;;;;;;;17.40;63.20;;;;;;5013937;28;19980;-74
2022/04/25 10:54:30;;;;;;;;;;;17.40;63.10;;;;;;5015025;28;20028;-73
2022/04/25 10:57:07;;;;;;;;;;;17.80;62.50;;;;;;5014753;28;20416;-75
2022/04/25 10:59:33;;;;;;;;;;;18.00;61.50;;;;;;5013816;28;20400;-75
2022/04/25 11:01:58;;;;;;;;;;;18.10;60.40;;;;;;5013316;28;19956;-73
2022/04/25 11:04:24;;;;;;;;;;;17.90;59.90;;;;;;5013369;28;19916;-74
2022/04/25 11:07:09;;;;;;;;;;;18.10;61.90;;;;;;5011899;28;19909;-73
2022/04/25 11:09:41;;;;;;;;;;;18.20;59.70;;;;;;5013516;28;19910;-73
2022/04/25 11:12:07;;;;;;;;;;;18.20;58.70;;;;;;5013169;28;19917;-75
2022/04/25 11:14:33;;;;;;;;;;;17.80;61.00;;;;;;5013118;28;19913;-75
2022/04/25 11:17:26;;;;;;;;;;;18.10;62.00;;;;;;5013209;28;20013;-73
2022/04/25 11:19:54;;;;;;;;;;;17.90;59.70;;;;;;5012543;28;19909;-74
2022/04/25 11:22:38;;;;;;;;;;;18.00;63.10;;;;;;5012872;28;19957;-74
2022/04/25 11:25:22;;;;;;;;;;;18.30;60.90;;;;;;5013042;28;19918;-74
2022/04/25 11:28:01;;;;;;;;;;;18.40;60.60;;;;;;5016295;28;20250;-72
2022/04/25 11:30:26;;;;;;;;;;;17.90;60.40;;;;;;5016803;28;19917;-74
2022/04/25 11:32:52;;;;;;;;;;;17.60;61.50;;;;;;5016064;28;19909;-73
2022/04/25 11:35:22;;;;;;;;;;;17.80;64.20;;;;;;5016251;28;20377;-75
2022/04/25 11:37:48;;;;;;;;;;;17.70;63.30;;;;;;5016171;28;19910;-72
2022/04/25 11:40:14;;;;;;;;;;;17.70;65.90;;;;;;5016696;28;19910;-74
2022/04/25 11:42:40;;;;;;;;;;;17.80;64.70;;;;;;5016268;28;20250;-74
2022/04/25 11:45:06;;;;;;;;;;;18.20;65.30;;;;;;5016233;28;20004;-73
2022/04/25 11:47:32;;;;;;;;;;;17.80;64.70;;;;;;5015991;28;19936;-73
2022/04/25 11:49:59;;;;;;;;;;;18.00;66.30;;;;;;5016115;28;19948;-74
2022/04/25 11:52:26;;;;;;;;;;;17.10;68.60;;;;;;5016022;28;19910;-74
2022/04/25 11:54:52;;;;;;;;;;;16.60;69.70;;;;;;5016379;28;20005;-74
2022/04/25 11:57:17;;;;;;;;;;;17.00;70.90;;;;;;5015884;28;19925;-73
2022/04/25 11:59:43;;;;;;;;;;;17.40;68.50;;;;;;5015876;28;19913;-73
2022/04/25 12:02:09;;;;;;;;;;;16.70;69.10;;;;;;5015926;28;19909;-74
2022/04/25 12:04:34;;;;;;;;;;;17.10;70.30;;;;;;5015873;28;19910;-75
2022/04/25 12:07:02;;;;;;;;;;;17.20;69.60;;;;;;5015534;28;19981;-74
2022/04/25 12:17:45;;;;;;;;;;;17.50;68.00;;;;;;4996072;28;19929;-76
2022/04/25 12:20:12;;;;;;;;;;;17.50;67.90;;;;;;4995870;28;20372;-78
2022/04/25 12:22:53;;;;;;;;;;;17.30;67.80;;;;;;4995363;28;19964;-76
2022/04/25 12:25:20;;;;;;;;;;;16.90;70.40;;;;;;4996022;28;19913;-80
2022/04/25 12:28:04;;;;;;;;;;;17.10;69.90;;;;;;4996208;28;19920;-77
2022/04/25 12:30:42;;;;;;;;;;;17.50;70.30;;;;;;4996535;28;19917;-75
2022/04/25 12:33:10;;;;;;;;;;;17.60;67.70;;;;;;4995986;28;20281;-80
2022/04/25 12:35:36;;;;;;;;;;;17.70;66.80;;;;;;4996022;28;19917;-75
2022/04/25 12:38:05;;;;;;;;;;;18.00;65.40;;;;;;4995406;28;19910;-77
2022/04/25 12:40:31;;;;;;;;;;;17.60;64.40;;;;;;4995663;28;19909;-75
2022/04/25 12:42:57;;;;;;;;;;;17.20;65.80;;;;;;5014724;28;19913;-78
2022/04/25 12:45:23;;;;;;;;;;;17.20;66.20;;;;;;5015166;28;19959;-75
2022/04/25 12:47:55;;;;;;;;;;;17.60;65.90;;;;;;5014839;28;19909;-77
2022/04/25 12:50:40;;;;;;;;;;;17.80;65.10;;;;;;5014821;28;19977;-76
2022/04/25 12:53:06;;;;;;;;;;;17.70;62.60;;;;;;5015251;28;19916;-78
2022/04/25 12:55:42;;;;;;;;;;;17.90;63.30;;;;;;5013751;28;19957;-73
2022/04/25 12:58:07;;;;;;;;;;;18.30;63.20;;;;;;5014959;28;19913;-69
2022/04/25 13:00:43;;;;;;;;;;;18.40;60.70;;;;;;5014843;28;19920;-76
2022/04/25 13:03:10;;;;;;;;;;;18.40;59.80;;;;;;5014795;28;19957;-77
2022/04/25 13:05:36;;;;;;;;;;;17.90;59.10;;;;;;5014511;28;19909;-76
2022/04/25 13:08:02;;;;;;;;;;;17.80;61.50;;;;;;5015139;28;19988;-75
2022/04/25 13:10:27;;;;;;;;;;;17.80;61.60;;;;;;5014598;28;19913;-74
2022/04/25 13:12:54;;;;;;;;;;;17.90;62.50;;;;;;4999424;28;19925;-74
2022/04/25 13:15:20;;;;;;;;;;;17.60;61.60;;;;;;4994953;28;20410;-75
2022/04/25 13:17:48;;;;;;;;;;;17.20;64.20;;;;;;4994989;28;19956;-74
2022/04/25 13:20:14;;;;;;;;;;;17.30;65.30;;;;;;4994686;28;19933;-77
2022/04/25 13:22:42;;;;;;;;;;;17.10;65.50;;;;;;4994346;28;19926;-75
2022/04/25 13:25:08;;;;;;;;;;;17.20;64.00;;;;;;4994621;28;19975;-74
2022/04/25 13:27:37;;;;;;;;;;;17.00;63.60;;;;;;4994546;28;20230;-74
2022/04/25 13:30:05;;;;;;;;;;;16.60;65.60;;;;;;4994634;28;19920;-74
2022/04/25 13:32:31;;;;;;;;;;;16.90;66.70;;;;;;4994460;28;19910;-77
2022/04/25 13:34:56;;;;;;;;;;;17.30;64.50;;;;;;4994683;28;19964;-70
2022/04/25 13:37:22;;;;;;;;;;;17.50;62.70;;;;;;4994181;28;20336;-71
2022/04/25 13:39:48;;;;;;;;;;;17.40;60.90;;;;;;4994613;28;20426;-75
2022/04/25 13:42:14;;;;;;;;;;;17.40;61.10;;;;;;4994110;28;20052;-74
2022/04/25 13:44:40;;;;;;;;;;;17.50;62.00;;;;;;4994339;28;19913;-73
2022/04/25 13:47:06;;;;;;;;;;;17.60;62.10;;;;;;4994185;28;19910;-73
2022/04/25 13:49:32;;;;;;;;;;;17.40;61.60;;;;;;4993490;28;19914;-72
2022/04/25 13:51:57;;;;;;;;;;;17.60;64.10;;;;;;4993804;28;20266;-69
2022/04/25 13:54:23;;;;;;;;;;;17.60;61.00;;;;;;4994179;28;19961;-73
2022/04/25 13:56:48;;;;;;;;;;;17.80;61.80;;;;;;4994184;28;20008;-69
2022/04/25 13:59:14;;;;;;;;;;;18.00;59.70;;;;;;4994467;28;19972;-75
2022/04/25 14:01:40;;;;;;;;;;;17.90;58.20;;;;;;4994343;28;19910;-76
2022/04/25 14:04:05;;;;;;;;;;;17.30;59.10;;;;;;4996299;28;19909;-77
2022/04/25 14:06:31;;;;;;;;;;;17.00;61.20;;;;;;5024206;28;19913;-77
2022/04/25 14:08:57;;;;;;;;;;;16.80;60.70;;;;;;5024176;28;19959;-78
2022/04/25 14:11:24;;;;;;;;;;;16.70;61.50;;;;;;5021848;28;19914;-74
2022/04/25 14:13:51;;;;;;;;;;;16.60;61.90;;;;;;5024283;28;20004;-76
2022/04/25 14:16:16;;;;;;;;;;;16.60;63.90;;;;;;5023666;28;20334;-76
2022/04/25 14:18:42;;;;;;;;;;;16.70;64.00;;;;;;5024090;28;20033;-74
2022/04/25 14:21:08;;;;;;;;;;;16.80;63.20;;;;;;5021150;28;20050;-76
2022/04/25 14:23:34;;;;;;;;;;;17.00;63.90;;;;;;5023956;28;19966;-70
2022/04/25 14:26:03;;;;;;;;;;;17.10;64.40;;;;;;5022067;28;19916;-74
2022/04/25 14:28:29;;;;;;;;;;;17.00;64.00;;;;;;5022985;28;19909;-72
2022/04/25 14:30:56;;;;;;;;;;;16.70;63.50;;;;;;5015907;28;19916;-76
2022/04/25 14:33:22;;;;;;;;;;;16.50;64.70;;;;;;5013344;28;19932;-75
2022/04/25 14:35:50;;;;;;;;;;;16.70;64.90;;;;;;5013490;28;20362;-75
2022/04/25 14:38:22;;;;;;;;;;;16.70;65.20;;;;;;5017997;28;20016;-73
2022/04/25 14:40:54;;;;;;;;;;;16.90;65.10;;;;;;5016316;28;19909;-71
2022/04/25 14:43:20;;;;;;;;;;;17.00;64.30;;;;;;5013131;28;19909;-71
2022/04/25 14:45:47;;;;;;;;;;;17.20;64.30;;;;;;5013977;28;19960;-73
2022/04/25 14:48:14;;;;;;;;;;;17.00;60.90;;;;;;5014050;28;19963;-73
2022/04/25 14:56:07;;;;;;;;;;;16.90;60.40;;;;;;5003670;28;19927;-73
2022/04/25 14:58:33;;;;;;;;;;;16.70;61.40;;;;;;5012901;28;20016;-75
2022/04/25 15:01:00;;;;;;;;;;;16.60;61.50;;;;;;5014765;28;19960;-74